Time;durP1;ratioP1;P1;durP2;ratioP2;P2;SDS_P1;SDS_P2;PMS_P1;PMS_P2;Temp;Humidity;BMP_temperature;BMP_pressure;BME280_temperature;BME280_humidity;BME280_pressure;Samples;Min_cycle;Max_cycle;Signal;HPM_P1;HPM_P2
2023/12/09 00:00:38;;;;;;;4.70;3.10;;;;;;;18.54;53.40;100160.22;5008400;28;20181;-64
2023/12/09 00:03:03;;;;;;;3.60;2.70;;;;;;;18.53;54.12;100170.84;4993429;28;20238;-64
2023/12/09 00:05:28;;;;;;;4.23;3.10;;;;;;;18.53;54.12;100170.00;5008931;28;20238;-65
2023/12/09 00:07:54;;;;;;;4.33;2.90;;;;;;;18.53;54.32;100164.28;5008355;28;20575;-64
2023/12/09 00:10:19;;;;;;;4.73;3.10;;;;;;;18.55;54.06;100159.00;4996569;28;20181;-64
2023/12/09 00:12:45;;;;;;;4.57;3.10;;;;;;;18.56;53.37;100175.78;5011382;28;20228;-64
2023/12/09 00:15:11;;;;;;;6.43;3.40;;;;;;;18.51;54.03;100176.09;5012171;28;20173;-70
2023/12/09 00:17:36;;;;;;;4.20;2.93;;;;;;;18.51;54.13;100169.56;4977207;28;20181;-70
2023/12/09 00:20:04;;;;;;;4.13;2.90;;;;;;;18.51;53.77;100170.38;5011974;28;20656;-68
2023/12/09 00:22:30;;;;;;;4.63;3.50;;;;;;;18.52;54.32;100166.31;4994506;28;20165;-68
2023/12/09 00:24:55;;;;;;;4.73;3.40;;;;;;;18.55;53.55;100177.00;4994317;28;20892;-67
2023/12/09 00:27:21;;;;;;;4.17;2.67;;;;;;;18.55;53.71;100177.00;5009693;28;20781;-67
2023/12/09 00:29:46;;;;;;;5.27;2.87;;;;;;;18.52;53.66;100177.75;4993432;28;20221;-68
2023/12/09 00:32:11;;;;;;;4.73;3.20;;;;;;;18.58;53.77;100173.38;5011503;28;20823;-68
2023/12/09 00:34:37;;;;;;;4.10;2.93;;;;;;;18.54;54.33;100180.22;5016026;28;20205;-68
2023/12/09 00:37:03;;;;;;;4.80;3.27;;;;;;;18.54;53.63;100177.38;5011149;28;20165;-68
2023/12/09 00:39:28;;;;;;;4.90;3.20;;;;;;;18.52;54.00;100188.38;5008037;28;20205;-67
2023/12/09 00:41:53;;;;;;;4.20;3.07;;;;;;;18.52;53.72;100185.53;5009097;28;20181;-68
2023/12/09 00:44:20;;;;;;;5.07;2.97;;;;;;;18.51;53.84;100189.59;4992698;28;20184;-67
2023/12/09 00:46:46;;;;;;;5.07;3.00;;;;;;;18.51;53.73;100187.53;4991843;28;20185;-69
2023/12/09 00:49:12;;;;;;;4.70;2.60;;;;;;;18.50;53.84;100188.75;5009974;28;20907;-67
2023/12/09 00:51:37;;;;;;;4.80;3.13;;;;;;;18.50;53.50;100199.34;4959887;28;20186;-68
2023/12/09 00:54:03;;;;;;;3.90;2.93;;;;;;;18.47;53.88;100200.13;4990432;28;20229;-68
2023/12/09 00:56:28;;;;;;;4.63;2.80;;;;;;;18.45;54.26;100203.38;5002139;28;20181;-68
2023/12/09 00:58:53;;;;;;;3.87;2.40;;;;;;;18.46;54.15;100207.88;4992101;28;20193;-68
2023/12/09 01:01:19;;;;;;;5.03;3.03;;;;;;;18.48;54.08;100210.34;5009095;28;20244;-67
2023/12/09 01:03:44;;;;;;;4.07;2.90;;;;;;;18.47;54.43;100214.44;5011776;28;20177;-67
2023/12/09 01:06:10;;;;;;;4.53;3.10;;;;;;;18.43;54.02;100217.22;5009886;28;20181;-68
2023/12/09 01:08:35;;;;;;;4.03;3.33;;;;;;;18.48;53.73;100230.38;4992642;28;20712;-69
2023/12/09 01:11:00;;;;;;;6.13;4.73;;;;;;;18.15;54.19;100230.97;5009805;28;20185;-68
2023/12/09 01:13:28;;;;;;;13.00;6.60;;;;;;;17.98;53.45;100228.63;5009364;28;20216;-68
2023/12/09 01:15:54;;;;;;;10.70;7.20;;;;;;;17.86;53.43;100225.13;5009995;28;20215;-71
2023/12/09 01:18:19;;;;;;;16.63;8.73;;;;;;;17.76;52.96;100223.69;5009506;28;20471;-70
2023/12/09 01:20:45;;;;;;;16.00;9.90;;;;;;;17.71;52.18;100218.28;5021341;28;20427;-69
2023/12/09 01:23:10;;;;;;;16.77;11.47;;;;;;;17.67;51.61;100220.25;5030086;28;20157;-71
2023/12/09 01:25:36;;;;;;;19.70;10.93;;;;;;;17.70;51.01;100222.34;5026472;28;20203;-62
2023/12/09 01:28:01;;;;;;;16.33;11.00;;;;;;;17.76;51.21;100229.38;5008800;28;20177;-60
2023/12/09 01:30:26;;;;;;;19.73;12.07;;;;;;;17.84;50.50;100225.47;5014188;28;20224;-63
2023/12/09 01:32:52;;;;;;;18.20;11.00;;;;;;;17.91;50.42;100219.91;5021293;28;20309;-61
2023/12/09 01:35:17;;;;;;;16.70;10.80;;;;;;;17.93;50.16;100228.94;5009380;28;20196;-62
2023/12/09 01:37:43;;;;;;;17.60;10.80;;;;;;;18.14;50.85;100226.47;5008202;28;20185;-65
2023/12/09 01:40:09;;;;;;;16.57;9.50;;;;;;;18.68;49.88;100227.06;4986626;28;20224;-65
2023/12/09 01:42:34;;;;;;;17.10;9.83;;;;;;;18.95;48.99;100243.00;4973284;28;20263;-65
2023/12/09 01:45:00;;;;;;;14.03;8.83;;;;;;;19.11;48.78;100239.97;4996223;28;20435;-65
2023/12/09 01:47:25;;;;;;;17.33;9.30;;;;;;;19.20;48.46;100231.91;5022596;28;20172;-65
2023/12/09 01:49:54;;;;;;;18.30;9.07;;;;;;;19.25;48.39;100231.59;4992238;28;20212;-64
2023/12/09 01:52:19;;;;;;;16.13;7.47;;;;;;;19.33;48.32;100230.50;5013402;28;20180;-65
2023/12/09 01:54:45;;;;;;;13.37;7.53;;;;;;;19.29;48.15;100229.63;4992417;28;20502;-65
2023/12/09 01:57:10;;;;;;;11.93;7.67;;;;;;;19.26;48.02;100219.78;5006778;28;20764;-63
2023/12/09 01:59:36;;;;;;;12.60;7.60;;;;;;;19.32;48.05;100218.22;4993731;28;20683;-62
2023/12/09 02:02:02;;;;;;;12.23;7.20;;;;;;;19.43;47.81;100218.38;4984876;28;20176;-62
2023/12/09 02:04:27;;;;;;;12.93;6.80;;;;;;;19.35;48.70;100222.34;4994074;28;20431;-62
2023/12/09 02:06:53;;;;;;;10.80;6.77;;;;;;;19.23;49.29;100220.56;4995578;28;20294;-62
2023/12/09 02:09:18;;;;;;;14.47;7.30;;;;;;;19.18;49.45;100212.28;5021701;28;20539;-62
2023/12/09 02:11:44;;;;;;;17.93;6.83;;;;;;;19.15;49.45;100218.78;4991595;28;20644;-63
2023/12/09 02:14:21;;;;;;;15.87;6.67;;;;;;;19.06;50.11;100220.28;5011631;28;20200;-62
2023/12/09 02:17:00;;;;;;;12.73;6.30;;;;;;;19.01;50.55;100209.16;4959036;28;20169;-62
2023/12/09 02:19:25;;;;;;;14.83;6.77;;;;;;;18.93;50.64;100196.81;4989787;28;20545;-62
2023/12/09 02:22:06;;;;;;;8.17;4.97;;;;;;;18.83;51.29;100194.59;4973774;28;21224;-63
2023/12/09 02:24:31;;;;;;;13.13;6.30;;;;;;;18.67;51.63;100196.78;4973551;28;20219;-63
2023/12/09 02:27:02;;;;;;;10.47;5.93;;;;;;;18.61;52.05;100198.31;5007918;28;20424;-63
2023/12/09 02:29:28;;;;;;;10.67;5.27;;;;;;;18.60;52.64;100193.81;5006284;28;20681;-62
2023/12/09 02:31:58;;;;;;;10.57;6.03;;;;;;;18.60;52.56;100182.38;4973534;28;20467;-63
2023/12/09 02:34:24;;;;;;;10.27;4.87;;;;;;;18.60;52.79;100173.81;5001610;28;20200;-68
2023/12/09 02:36:49;;;;;;;11.60;5.80;;;;;;;18.54;52.77;100163.06;5008646;28;20416;-68
2023/12/09 02:39:14;;;;;;;8.77;4.63;;;;;;;18.53;53.22;100153.69;5006495;28;20200;-68
2023/12/09 02:41:40;;;;;;;12.37;5.40;;;;;;;18.53;52.91;100156.56;4991388;28;20180;-68
2023/12/09 02:44:05;;;;;;;8.40;5.13;;;;;;;18.57;52.94;100157.41;4984970;28;20260;-69
2023/12/09 02:46:31;;;;;;;9.17;4.53;;;;;;;18.50;53.38;100154.44;5001474;28;20203;-69
2023/12/09 02:48:59;;;;;;;10.30;5.50;;;;;;;18.51;53.68;100136.09;4990391;28;20169;-68
2023/12/09 02:51:25;;;;;;;9.90;4.33;;;;;;;18.59;53.52;100139.88;5007972;28;20181;-67
2023/12/09 02:53:50;;;;;;;9.63;4.60;;;;;;;18.53;53.65;100139.41;4975016;28;20427;-69
2023/12/09 02:56:16;;;;;;;11.00;5.30;;;;;;;18.52;54.13;100148.34;4990495;28;20180;-68
2023/12/09 02:58:41;;;;;;;10.30;4.80;;;;;;;18.45;54.19;100154.78;5008383;28;20196;-68
2023/12/09 03:01:06;;;;;;;9.87;5.33;;;;;;;18.48;53.84;100153.19;5008380;28;20180;-67
2023/12/09 03:03:32;;;;;;;10.40;4.30;;;;;;;18.46;53.95;100153.56;5015074;28;20180;-68
2023/12/09 03:05:57;;;;;;;7.23;4.47;;;;;;;18.46;54.00;100147.84;5027502;28;20176;-68
2023/12/09 03:08:23;;;;;;;9.53;4.87;;;;;;;18.44;53.87;100146.56;5007636;28;20165;-69
2023/12/09 03:10:48;;;;;;;11.53;5.17;;;;;;;18.42;53.96;100144.09;5008070;28;20533;-68
2023/12/09 03:13:13;;;;;;;7.00;4.23;;;;;;;18.43;54.48;100137.19;4991347;28;20690;-69
2023/12/09 03:15:39;;;;;;;9.73;4.40;;;;;;;18.40;54.43;100139.97;5009049;28;20165;-69
2023/12/09 03:18:04;;;;;;;8.63;3.90;;;;;;;18.44;54.11;100129.44;5006373;28;20259;-68
2023/12/09 03:20:30;;;;;;;6.03;3.87;;;;;;;18.46;53.69;100130.69;5008803;28;20516;-69
2023/12/09 03:22:55;;;;;;;7.57;4.33;;;;;;;18.41;54.25;100130.22;5008040;28;20181;-69
2023/12/09 03:25:20;;;;;;;8.97;4.70;;;;;;;18.40;54.03;100132.25;4990632;28;20982;-69
2023/12/09 03:27:46;;;;;;;9.07;4.13;;;;;;;18.41;53.96;100133.88;5007720;28;20165;-69
2023/12/09 03:30:11;;;;;;;8.97;4.87;;;;;;;18.38;53.97;100136.69;5007797;28;20279;-69
2023/12/09 03:32:38;;;;;;;5.57;3.77;;;;;;;18.42;54.08;100140.44;4989794;28;20185;-68
2023/12/09 03:35:04;;;;;;;8.40;3.97;;;;;;;18.36;54.26;100134.22;5004195;28;20266;-69
2023/12/09 03:37:29;;;;;;;7.60;4.60;;;;;;;18.36;54.26;100121.97;5006959;28;20455;-68
2023/12/09 03:39:55;;;;;;;8.03;4.13;;;;;;;18.39;54.07;100130.59;4990520;28;20585;-69
2023/12/09 03:42:20;;;;;;;6.23;3.80;;;;;;;18.38;53.96;100131.81;5011574;28;20195;-69
2023/12/09 03:44:46;;;;;;;8.07;3.93;;;;;;;18.34;54.03;100125.19;4993162;28;20667;-69
2023/12/09 03:47:11;;;;;;;5.37;4.13;;;;;;;18.35;54.31;100138.28;4976330;28;20177;-69
2023/12/09 03:49:37;;;;;;;7.00;4.00;;;;;;;18.38;53.92;100134.66;5003222;28;20195;-69
2023/12/09 03:52:02;;;;;;;9.90;3.60;;;;;;;18.35;54.36;100140.31;4994366;28;20177;-68
2023/12/09 03:54:28;;;;;;;8.00;3.70;;;;;;;18.37;54.36;100137.91;4994726;28;20177;-69
2023/12/09 03:56:53;;;;;;;8.67;4.10;;;;;;;18.30;54.89;100141.44;4994688;28;20177;-68
2023/12/09 03:59:18;;;;;;;6.57;3.43;;;;;;;18.31;54.00;100145.94;4993665;28;20255;-69
2023/12/09 04:01:48;;;;;;;6.33;3.60;;;;;;;18.35;53.81;100144.00;5012322;28;20204;-68
2023/12/09 04:04:13;;;;;;;5.50;3.73;;;;;;;18.36;53.91;100150.56;5010102;28;20196;-69
2023/12/09 04:06:39;;;;;;;6.50;3.87;;;;;;;18.33;54.29;100139.88;5012171;28;20432;-69
2023/12/09 04:09:04;;;;;;;5.27;3.10;;;;;;;18.30;54.19;100152.88;4994370;28;20181;-69
2023/12/09 04:11:30;;;;;;;7.00;3.40;;;;;;;18.29;54.15;100154.06;5011069;28;20236;-69
2023/12/09 04:13:55;;;;;;;6.20;3.70;;;;;;;18.33;54.40;100152.13;5011703;28;20192;-69
2023/12/09 04:16:20;;;;;;;6.37;4.20;;;;;;;18.31;54.57;100147.97;4975976;28;20181;-68
2023/12/09 04:18:47;;;;;;;6.60;3.83;;;;;;;18.32;54.24;100147.59;5011229;28;20553;-68
2023/12/09 04:21:12;;;;;;;10.40;3.83;;;;;;;18.31;54.63;100137.34;5011190;28;20236;-68
2023/12/09 04:23:37;;;;;;;7.23;3.60;;;;;;;18.31;54.36;100142.28;4991813;28;20443;-69
2023/12/09 04:26:04;;;;;;;6.70;3.80;;;;;;;18.29;54.27;100139.78;4992812;28;20809;-68
2023/12/09 04:28:30;;;;;;;6.80;3.60;;;;;;;18.26;54.50;100146.25;5009915;28;20221;-69
2023/12/09 04:30:58;;;;;;;7.73;3.60;;;;;;;18.27;54.21;100141.38;4993016;28;20427;-68
2023/12/09 04:33:24;;;;;;;8.20;4.10;;;;;;;18.26;54.55;100137.69;5015133;28;20254;-69
2023/12/09 04:35:49;;;;;;;6.63;3.70;;;;;;;18.26;54.41;100131.16;5030972;28;20470;-69
2023/12/09 04:38:14;;;;;;;6.37;3.60;;;;;;;18.29;54.15;100144.66;5023562;28;20613;-67
2023/12/09 04:40:42;;;;;;;5.17;3.03;;;;;;;18.33;54.09;100152.13;4977803;28;20173;-67
2023/12/09 04:43:07;;;;;;;5.40;3.47;;;;;;;18.33;54.45;100145.59;4993841;28;20595;-69
2023/12/09 04:45:33;;;;;;;8.50;3.60;;;;;;;18.28;54.38;100146.72;5011192;28;20435;-69
2023/12/09 04:47:58;;;;;;;6.07;3.10;;;;;;;18.28;54.31;100155.28;5010153;28;20571;-69
2023/12/09 04:50:24;;;;;;;5.73;3.33;;;;;;;18.30;54.01;100150.00;5011232;28;20250;-69
2023/12/09 04:52:49;;;;;;;4.87;3.30;;;;;;;18.26;54.44;100151.16;5008753;28;20212;-69
2023/12/09 04:55:15;;;;;;;10.53;3.40;;;;;;;18.23;55.05;100151.91;4993249;28;20188;-68
2023/12/09 04:57:40;;;;;;;5.43;3.50;;;;;;;18.24;54.18;100145.81;4993582;28;20177;-69
2023/12/09 05:00:06;;;;;;;5.10;3.23;;;;;;;18.22;54.67;100141.69;4992949;28;20196;-68
2023/12/09 05:02:31;;;;;;;9.53;3.87;;;;;;;18.24;54.62;100142.97;5011050;28;20208;-68
2023/12/09 05:04:57;;;;;;;4.97;2.87;;;;;;;18.26;54.40;100139.75;4995861;28;20447;-62
2023/12/09 05:07:26;;;;;;;4.90;2.90;;;;;;;18.23;54.25;100131.91;4993130;28;20181;-62
2023/12/09 05:09:52;;;;;;;5.37;2.80;;;;;;;18.21;54.40;100131.50;5010003;28;20194;-62
2023/12/09 05:12:18;;;;;;;4.70;3.50;;;;;;;18.22;54.66;100124.56;4977233;28;20439;-62
2023/12/09 05:14:43;;;;;;;4.70;3.23;;;;;;;18.24;54.52;100120.09;5010928;28;20427;-62
2023/12/09 05:17:09;;;;;;;4.63;2.67;;;;;;;18.21;54.22;100117.19;4992142;28;20193;-63
2023/12/09 05:19:34;;;;;;;6.03;3.20;;;;;;;18.22;54.19;100113.13;5008824;28;20259;-63
2023/12/09 05:22:00;;;;;;;6.80;3.23;;;;;;;18.22;54.49;100110.28;5009654;28;20181;-62
2023/12/09 05:24:25;;;;;;;5.53;3.03;;;;;;;18.23;54.41;100112.75;4991195;28;20185;-62
2023/12/09 05:26:51;;;;;;;5.07;2.87;;;;;;;18.25;54.46;100118.06;4991805;28;20185;-61
2023/12/09 05:29:16;;;;;;;5.30;3.53;;;;;;;18.21;53.97;100102.91;5009337;28;20225;-62
2023/12/09 05:31:42;;;;;;;4.63;3.10;;;;;;;18.21;54.46;100108.63;4991574;28;20195;-62
2023/12/09 05:34:08;;;;;;;6.10;3.00;;;;;;;18.21;54.63;100100.84;5009321;28;20215;-61
2023/12/09 05:36:33;;;;;;;4.73;3.03;;;;;;;18.20;54.43;100102.06;4992427;28;20247;-62
2023/12/09 05:38:59;;;;;;;5.70;3.40;;;;;;;18.21;54.46;100086.56;5009200;28;20185;-62
2023/12/09 05:41:25;;;;;;;4.40;2.93;;;;;;;18.24;54.26;100090.69;4977541;28;20192;-62
2023/12/09 05:43:50;;;;;;;5.70;2.97;;;;;;;18.24;54.62;100076.41;5009602;28;20232;-62
2023/12/09 05:46:19;;;;;;;5.37;3.57;;;;;;;18.25;54.10;100075.19;4989136;28;20444;-62
2023/12/09 05:48:44;;;;;;;6.33;3.20;;;;;;;18.22;54.32;100075.97;4991205;28;20534;-62
2023/12/09 05:51:10;;;;;;;4.80;3.60;;;;;;;18.25;54.44;100081.75;5010263;28;20459;-62
2023/12/09 05:53:35;;;;;;;4.77;3.10;;;;;;;18.26;54.74;100077.69;4991727;28;20184;-61
2023/12/09 05:56:01;;;;;;;5.37;2.97;;;;;;;18.28;53.99;100072.41;5009370;28;20244;-61
2023/12/09 05:58:26;;;;;;;5.10;3.00;;;;;;;18.26;54.46;100071.97;4992345;28;20204;-62
2023/12/09 06:00:52;;;;;;;4.03;2.93;;;;;;;18.27;54.32;100078.50;4991816;28;20199;-61
2023/12/09 06:03:17;;;;;;;5.37;2.80;;;;;;;18.30;54.10;100066.28;5013299;28;20275;-62
2023/12/09 06:05:43;;;;;;;4.23;2.63;;;;;;;18.28;54.06;100068.72;4994489;28;20196;-61
2023/12/09 06:08:11;;;;;;;5.60;3.10;;;;;;;18.27;54.39;100065.03;5019965;28;20177;-63
2023/12/09 06:10:37;;;;;;;5.80;3.27;;;;;;;18.27;54.39;100070.75;4975604;28;20287;-61
2023/12/09 06:13:02;;;;;;;4.43;3.00;;;;;;;18.32;54.35;100063.88;5009247;28;20543;-62
2023/12/09 06:15:27;;;;;;;4.57;2.67;;;;;;;18.28;54.09;100066.69;4986841;28;20190;-68
2023/12/09 06:17:53;;;;;;;5.20;2.83;;;;;;;18.27;54.36;100061.38;4971774;28;20248;-69
2023/12/09 06:20:18;;;;;;;3.93;2.80;;;;;;;18.22;54.82;100053.94;4973086;28;20705;-68
2023/12/09 06:22:44;;;;;;;4.50;2.90;;;;;;;18.26;54.19;100051.97;5007161;28;20204;-67
2023/12/09 06:25:09;;;;;;;4.00;2.87;;;;;;;18.26;54.52;100054.00;4974277;28;20177;-68
2023/12/09 06:27:35;;;;;;;4.00;2.70;;;;;;;18.22;54.55;100048.22;5008691;28;20177;-69
2023/12/09 06:30:01;;;;;;;5.23;3.20;;;;;;;18.27;54.40;100049.94;4987831;28;20245;-67
2023/12/09 06:32:26;;;;;;;4.43;2.93;;;;;;;18.22;54.54;100045.34;5008403;28;20189;-69
2023/12/09 06:34:52;;;;;;;7.00;3.20;;;;;;;18.24;54.19;100047.84;5007685;28;20218;-70
2023/12/09 06:37:17;;;;;;;4.57;2.83;;;;;;;18.22;54.42;100044.56;5008485;28;20192;-69
2023/12/09 06:39:44;;;;;;;7.70;3.20;;;;;;;18.24;54.82;100048.66;4975751;28;20209;-69
2023/12/09 06:42:09;;;;;;;4.83;2.87;;;;;;;18.21;54.51;100052.28;5009561;28;20543;-69
2023/12/09 06:44:34;;;;;;;4.67;2.80;;;;;;;18.23;54.59;100049.88;5008362;28;20185;-68
2023/12/09 06:47:00;;;;;;;5.80;3.10;;;;;;;18.23;54.60;100047.03;5004618;28;20208;-69
2023/12/09 06:49:25;;;;;;;5.20;2.57;;;;;;;18.22;54.35;100053.94;4991592;28;20177;-69
2023/12/09 06:51:51;;;;;;;4.23;2.50;;;;;;;18.20;54.35;100044.09;4973203;28;20189;-68
2023/12/09 06:54:17;;;;;;;3.20;2.53;;;;;;;18.24;54.23;100039.25;4992194;28;20524;-68
2023/12/09 06:56:42;;;;;;;4.60;2.50;;;;;;;18.22;54.38;100038.84;4991899;28;20177;-69
2023/12/09 06:59:08;;;;;;;4.00;2.50;;;;;;;18.21;54.31;100029.44;5008802;28;20263;-68
2023/12/09 07:01:33;;;;;;;5.80;2.23;;;;;;;18.23;54.59;100029.06;4990432;28;20215;-69
2023/12/09 07:03:59;;;;;;;5.10;3.00;;;;;;;18.26;54.40;100031.94;4991297;28;20193;-69
2023/12/09 07:06:25;;;;;;;5.90;2.93;;;;;;;18.25;54.42;100038.06;4991278;28;20169;-68
2023/12/09 07:08:51;;;;;;;3.90;2.70;;;;;;;18.30;54.02;100040.56;5008230;28;20974;-69
2023/12/09 07:11:17;;;;;;;4.00;2.50;;;;;;;18.31;53.86;100045.91;5006476;28;20439;-69
2023/12/09 07:13:43;;;;;;;3.80;2.47;;;;;;;18.26;54.05;100046.25;4989647;28;20173;-68
2023/12/09 07:16:09;;;;;;;3.40;2.57;;;;;;;18.30;54.37;100044.25;4990416;28;21110;-69
2023/12/09 07:18:35;;;;;;;6.33;3.13;;;;;;;18.27;54.35;100042.16;4993768;28;20197;-68
2023/12/09 07:21:01;;;;;;;4.17;2.83;;;;;;;18.29;54.37;100050.38;4993104;28;20547;-68
2023/12/09 07:23:26;;;;;;;4.37;2.40;;;;;;;18.33;54.33;100059.84;5011427;28;20197;-69
2023/12/09 07:25:52;;;;;;;5.47;2.90;;;;;;;18.32;54.04;100052.47;5012656;28;20208;-61
2023/12/09 07:28:17;;;;;;;4.90;2.70;;;;;;;18.34;54.04;100050.06;5012344;28;20181;-62
2023/12/09 07:30:43;;;;;;;3.80;2.10;;;;;;;18.33;54.09;100052.13;5012424;28;20221;-61
2023/12/09 07:33:08;;;;;;;3.87;2.70;;;;;;;18.31;54.01;100054.47;5015078;28;20742;-61
2023/12/09 07:35:34;;;;;;;4.90;2.30;;;;;;;18.30;54.36;100057.72;4998421;28;20620;-62
2023/12/09 07:37:59;;;;;;;4.00;2.40;;;;;;;18.29;54.42;100062.63;4993945;28;20184;-62
2023/12/09 07:40:24;;;;;;;4.30;2.60;;;;;;;18.29;54.43;100065.50;4994887;28;20173;-61
2023/12/09 07:42:50;;;;;;;3.57;2.80;;;;;;;18.29;54.60;100058.94;5009846;28;20197;-63
2023/12/09 07:45:15;;;;;;;4.23;2.63;;;;;;;18.28;54.78;100046.69;4977323;28;20239;-62
2023/12/09 07:47:41;;;;;;;3.20;2.27;;;;;;;18.26;54.70;100040.53;4993970;28;20181;-63
2023/12/09 07:50:06;;;;;;;4.03;2.50;;;;;;;18.25;54.51;100038.88;4994138;28;20234;-62
2023/12/09 07:52:32;;;;;;;4.10;2.47;;;;;;;18.26;54.70;100046.25;5011686;28;20235;-62
2023/12/09 07:54:57;;;;;;;3.70;2.23;;;;;;;18.26;54.23;100043.38;5011000;28;20198;-62
2023/12/09 07:57:23;;;;;;;4.03;2.63;;;;;;;18.23;54.04;100043.34;4994219;28;20173;-62
2023/12/09 07:59:48;;;;;;;3.20;2.20;;;;;;;18.27;54.73;100035.66;4993971;28;20256;-61
2023/12/09 08:02:13;;;;;;;3.37;2.30;;;;;;;18.27;54.69;100033.59;5010316;28;20189;-62
2023/12/09 08:04:39;;;;;;;4.40;2.90;;;;;;;18.26;54.33;100031.16;5003544;28;20204;-62
2023/12/09 08:07:04;;;;;;;4.00;2.40;;;;;;;18.25;54.94;100020.91;5010392;28;20507;-62
2023/12/09 08:09:30;;;;;;;4.03;2.10;;;;;;;18.26;54.12;100020.53;4993476;28;20233;-62
2023/12/09 08:11:55;;;;;;;3.97;2.70;;;;;;;18.24;54.57;100016.41;5011034;28;20177;-62
2023/12/09 08:14:21;;;;;;;3.93;2.60;;;;;;;18.24;54.65;100017.25;4992622;28;20192;-62
2023/12/09 08:16:47;;;;;;;3.40;2.20;;;;;;;18.27;54.40;100025.03;5001009;28;20649;-63
2023/12/09 08:19:13;;;;;;;3.13;2.43;;;;;;;18.27;54.65;100019.31;4999261;28;20224;-62
2023/12/09 08:21:38;;;;;;;4.03;2.43;;;;;;;18.31;54.52;100016.53;5010445;28;20169;-62
2023/12/09 08:24:04;;;;;;;3.70;2.23;;;;;;;18.26;54.47;100016.88;5011893;28;20429;-63
2023/12/09 08:26:29;;;;;;;3.70;2.40;;;;;;;18.27;54.54;100007.88;5009908;28;20279;-62
2023/12/09 08:28:55;;;;;;;3.87;2.80;;;;;;;18.31;54.27;100003.03;5010328;28;20255;-61
2023/12/09 08:31:20;;;;;;;4.30;2.57;;;;;;;18.31;54.52;100005.91;5010149;28;20201;-62
2023/12/09 08:33:46;;;;;;;3.80;2.37;;;;;;;18.30;54.22;100006.28;5019322;28;20243;-62
2023/12/09 08:36:11;;;;;;;4.30;2.50;;;;;;;18.35;53.86;100009.66;5031439;28;20179;-62
2023/12/09 08:38:37;;;;;;;4.30;2.37;;;;;;;18.36;53.96;100001.94;5013390;28;20258;-62
2023/12/09 08:41:02;;;;;;;3.73;2.27;;;;;;;18.35;54.02;99995.38;4982469;28;20609;-62
2023/12/09 08:43:28;;;;;;;3.53;2.80;;;;;;;18.37;53.96;99992.94;4977377;28;20470;-62
2023/12/09 08:45:53;;;;;;;5.47;2.93;;;;;;;18.37;53.64;99984.38;5011183;28;20208;-62
2023/12/09 08:48:19;;;;;;;4.17;2.73;;;;;;;18.39;53.88;99978.28;5009294;28;20601;-62
2023/12/09 08:50:44;;;;;;;5.20;2.50;;;;;;;18.40;54.18;99980.75;5008070;28;20184;-62
2023/12/09 08:53:09;;;;;;;3.00;2.20;;;;;;;18.39;54.29;99973.41;4992594;28;20173;-62
2023/12/09 08:55:35;;;;;;;3.50;2.50;;;;;;;18.38;53.90;99988.91;4991418;28;20208;-62
2023/12/09 08:58:00;;;;;;;3.20;2.30;;;;;;;18.35;54.29;99992.53;4991959;28;20185;-62
2023/12/09 09:00:27;;;;;;;2.73;1.90;;;;;;;18.36;53.91;99981.94;4990954;28;20189;-61
2023/12/09 09:02:55;;;;;;;5.47;3.20;;;;;;;18.33;54.91;99971.25;4973268;28;20641;-63
2023/12/09 09:05:24;;;;;;;4.97;2.43;;;;;;;18.33;53.99;99969.25;5011865;28;20437;-61
2023/12/09 09:07:49;;;;;;;4.93;2.60;;;;;;;18.32;54.48;99973.28;5012723;28;20436;-62
2023/12/09 09:10:15;;;;;;;2.90;2.10;;;;;;;18.34;54.67;99967.19;5004664;28;20942;-63
2023/12/09 09:12:40;;;;;;;3.77;2.10;;;;;;;18.33;54.53;99956.97;4992004;28;20268;-62
2023/12/09 09:15:07;;;;;;;3.47;2.10;;;;;;;18.34;54.57;99942.31;4992683;28;20505;-61
2023/12/09 09:17:32;;;;;;;3.60;2.30;;;;;;;18.30;54.46;99937.69;4976810;28;20176;-63
2023/12/09 09:19:58;;;;;;;4.00;2.50;;;;;;;18.34;54.32;99938.59;4992454;28;20475;-62
2023/12/09 09:22:23;;;;;;;2.97;2.10;;;;;;;18.33;54.06;99934.94;4992334;28;20173;-61
2023/12/09 09:24:49;;;;;;;2.77;1.83;;;;;;;18.34;54.28;99933.72;5010379;28;20192;-61
2023/12/09 09:27:14;;;;;;;6.20;2.87;;;;;;;18.33;54.37;99934.94;4992546;28;20239;-61
2023/12/09 09:29:39;;;;;;;3.67;2.53;;;;;;;18.32;54.47;99938.97;5008854;28;20244;-61
2023/12/09 09:32:06;;;;;;;5.10;2.87;;;;;;;18.11;53.97;99944.38;4979533;28;20186;-62
2023/12/09 09:34:31;;;;;;;6.00;2.70;;;;;;;17.79;53.65;99943.09;4991252;28;20217;-63
2023/12/09 09:36:56;;;;;;;7.23;2.87;;;;;;;17.69;53.79;99943.75;4982748;28;21069;-65
2023/12/09 09:39:22;;;;;;;9.93;3.47;;;;;;;17.84;53.58;99945.63;4997681;28;21262;-65
2023/12/09 09:42:02;;;;;;;15.23;4.00;;;;;;;17.95;53.54;99943.75;4980806;28;20195;-66
2023/12/09 09:44:28;;;;;;;11.60;4.33;;;;;;;17.97;53.49;99938.47;4997778;28;20180;-65
2023/12/09 09:46:56;;;;;;;13.13;4.60;;;;;;;18.19;54.19;99926.16;4979099;28;20435;-66
2023/12/09 09:49:21;;;;;;;15.90;5.10;;;;;;;18.37;52.36;99930.06;4978086;28;20275;-66
2023/12/09 09:51:49;;;;;;;17.93;4.73;;;;;;;18.64;52.20;99934.50;4980087;28;20420;-66
2023/12/09 09:54:21;;;;;;;10.23;4.83;;;;;;;18.89;51.10;99911.91;4998331;28;20240;-65
2023/12/09 09:56:48;;;;;;;11.63;4.43;;;;;;;19.13;51.10;99895.00;4962472;28;20886;-64
2023/12/09 09:59:14;;;;;;;10.03;4.53;;;;;;;19.29;50.61;99878.41;4963829;28;20471;-64
2023/12/09 10:01:41;;;;;;;14.60;4.20;;;;;;;19.35;50.42;99896.84;4998388;28;20439;-65
2023/12/09 10:04:06;;;;;;;9.40;3.60;;;;;;;19.42;50.43;99899.75;4963231;28;20271;-64
2023/12/09 10:06:32;;;;;;;13.90;4.10;;;;;;;19.48;50.09;99895.31;4978889;28;20436;-64
2023/12/09 10:08:57;;;;;;;11.23;4.73;;;;;;;19.31;50.04;99892.31;4978649;28;20185;-64
2023/12/09 10:11:23;;;;;;;8.40;3.60;;;;;;;19.42;50.49;99876.84;4977616;28;20191;-64
2023/12/09 10:13:48;;;;;;;8.73;4.10;;;;;;;19.40;50.65;99881.31;4981126;28;20270;-63
2023/12/09 10:16:13;;;;;;;11.10;4.97;;;;;;;19.03;51.14;99855.66;4957201;28;20251;-63
2023/12/09 10:18:45;;;;;;;12.93;4.10;;;;;;;18.86;51.41;99853.44;5009841;28;20216;-64
2023/12/09 10:21:11;;;;;;;10.50;4.53;;;;;;;18.75;51.82;99851.69;5007365;28;20181;-62
2023/12/09 10:23:36;;;;;;;10.07;4.30;;;;;;;18.70;52.05;99847.16;4981584;28;20486;-62
2023/12/09 10:26:02;;;;;;;11.97;4.10;;;;;;;18.73;51.83;99845.56;5004589;28;20191;-62
2023/12/09 10:28:29;;;;;;;19.93;4.53;;;;;;;18.73;52.04;99840.66;5002762;28;20207;-62
2023/12/09 10:30:55;;;;;;;14.83;4.97;;;;;;;18.62;52.45;99834.00;5017479;28;20479;-61
2023/12/09 10:33:21;;;;;;;13.33;4.67;;;;;;;18.59;52.57;99831.94;5024250;28;20520;-62
2023/12/09 10:35:46;;;;;;;12.90;4.73;;;;;;;18.64;52.72;99828.72;4998102;28;20434;-62
2023/12/09 10:38:12;;;;;;;15.37;4.80;;;;;;;18.60;53.30;99833.56;4994270;28;20249;-63
2023/12/09 10:40:38;;;;;;;23.93;5.90;;;;;;;18.64;52.67;99823.00;4975235;28;20189;-62
2023/12/09 10:43:03;;;;;;;12.77;4.30;;;;;;;18.68;52.57;99809.56;5007529;28;20778;-62
2023/12/09 10:45:28;;;;;;;15.20;4.50;;;;;;;18.65;52.90;99804.63;5006688;28;20188;-62
2023/12/09 10:47:54;;;;;;;17.93;4.37;;;;;;;18.63;53.28;99789.09;4991107;28;20227;-62
2023/12/09 10:50:20;;;;;;;16.20;5.00;;;;;;;18.61;53.47;99777.22;5008668;28;20193;-62
2023/12/09 10:52:45;;;;;;;11.77;4.50;;;;;;;18.60;53.94;99772.69;4991644;28;20196;-61
2023/12/09 10:55:10;;;;;;;12.90;4.40;;;;;;;18.61;53.56;99757.22;5008790;28;20200;-62
2023/12/09 10:57:36;;;;;;;15.77;4.93;;;;;;;18.57;53.93;99737.16;5009566;28;20185;-61
2023/12/09 11:00:06;;;;;;;14.57;4.90;;;;;;;18.59;54.10;99728.19;4973341;28;20212;-62
2023/12/09 11:02:32;;;;;;;15.10;4.00;;;;;;;18.57;54.10;99722.84;5008810;28;20173;-62
2023/12/09 11:04:58;;;;;;;10.90;4.03;;;;;;;18.61;53.94;99709.41;4990719;28;21040;-61
2023/12/09 11:07:23;;;;;;;12.90;4.17;;;;;;;18.60;53.97;99698.38;4989435;28;20598;-62
2023/12/09 11:09:48;;;;;;;13.20;4.50;;;;;;;18.62;53.64;99701.69;5008307;28;20161;-61
2023/12/09 11:12:27;;;;;;;10.27;4.03;;;;;;;18.60;53.87;99687.78;4990814;28;20169;-62
2023/12/09 11:14:53;;;;;;;14.10;4.00;;;;;;;18.62;54.08;99668.16;5007344;28;20234;-62
2023/12/09 11:17:35;;;;;;;18.23;4.00;;;;;;;18.62;54.14;99650.22;4973112;28;20451;-61